sensor_id;sensor_type;location;lat;lon;timestamp;temperature;humidity
44170;DHT22;29836;52.286;9.576;2023-09-18T00:02:18;18.80;99.90
44170;DHT22;29836;52.286;9.576;2023-09-18T00:04:44;18.80;99.90
44170;DHT22;29836;52.286;9.576;2023-09-18T00:07:09;18.70;99.90
44170;DHT22;29836;52.286;9.576;2023-09-18T00:09:37;18.70;99.90
44170;DHT22;29836;52.286;9.576;2023-09-18T00:12:03;18.70;99.90
44170;DHT22;29836;52.286;9.576;2023-09-18T00:14:28;18.70;99.90
44170;DHT22;29836;52.286;9.576;2023-09-18T00:16:54;18.70;99.90
44170;DHT22;29836;52.286;9.576;2023-09-18T00:19:22;18.70;99.90
44170;DHT22;29836;52.286;9.576;2023-09-18T00:21:48;18.60;99.90
44170;DHT22;29836;52.286;9.576;2023-09-18T00:24:14;18.60;99.90
44170;DHT22;29836;52.286;9.576;2023-09-18T00:26:40;18.50;99.90
44170;DHT22;29836;52.286;9.576;2023-09-18T00:29:05;18.50;99.90
44170;DHT22;29836;52.286;9.576;2023-09-18T00:31:31;18.40;99.90
44170;DHT22;29836;52.286;9.576;2023-09-18T00:33:56;18.40;99.90
44170;DHT22;29836;52.286;9.576;2023-09-18T00:36:22;18.30;99.90
44170;DHT22;29836;52.286;9.576;2023-09-18T00:38:47;18.30;99.90
44170;DHT22;29836;52.286;9.576;2023-09-18T00:41:13;18.20;99.90
44170;DHT22;29836;52.286;9.576;2023-09-18T00:43:38;18.20;99.90
44170;DHT22;29836;52.286;9.576;2023-09-18T00:46:04;18.10;99.90
44170;DHT22;29836;52.286;9.576;2023-09-18T00:48:30;18.10;99.90
44170;DHT22;29836;52.286;9.576;2023-09-18T00:50:56;18.10;99.90
44170;DHT22;29836;52.286;9.576;2023-09-18T00:53:23;18.00;99.90
44170;DHT22;29836;52.286;9.576;2023-09-18T00:55:54;18.00;99.90
44170;DHT22;29836;52.286;9.576;2023-09-18T00:58:20;18.00;99.90
44170;DHT22;29836;52.286;9.576;2023-09-18T01:00:46;18.00;99.90
44170;DHT22;29836;52.286;9.576;2023-09-18T01:03:11;18.00;99.90
44170;DHT22;29836;52.286;9.576;2023-09-18T01:05:37;18.00;99.90
44170;DHT22;29836;52.286;9.576;2023-09-18T01:08:03;17.90;99.90
44170;DHT22;29836;52.286;9.576;2023-09-18T01:10:36;17.90;99.90
44170;DHT22;29836;52.286;9.576;2023-09-18T01:13:11;17.90;99.90
44170;DHT22;29836;52.286;9.576;2023-09-18T01:15:51;17.90;99.90
44170;DHT22;29836;52.286;9.576;2023-09-18T01:18:19;17.90;99.90
44170;DHT22;29836;52.286;9.576;2023-09-18T01:20:44;17.90;99.90
44170;DHT22;29836;52.286;9.576;2023-09-18T01:23:10;17.90;99.90
44170;DHT22;29836;52.286;9.576;2023-09-18T01:25:37;17.90;99.90
44170;DHT22;29836;52.286;9.576;2023-09-18T01:28:03;18.00;99.90
44170;DHT22;29836;52.286;9.576;2023-09-18T01:30:29;18.00;99.90
44170;DHT22;29836;52.286;9.576;2023-09-18T01:32:57;18.10;99.90
44170;DHT22;29836;52.286;9.576;2023-09-18T01:35:25;18.10;99.90
44170;DHT22;29836;52.286;9.576;2023-09-18T01:37:56;18.10;99.90
44170;DHT22;29836;52.286;9.576;2023-09-18T01:40:22;18.10;99.90
44170;DHT22;29836;52.286;9.576;2023-09-18T01:42:48;18.10;99.90
44170;DHT22;29836;52.286;9.576;2023-09-18T01:45:14;18.10;99.90
44170;DHT22;29836;52.286;9.576;2023-09-18T01:47:39;18.20;99.90
44170;DHT22;29836;52.286;9.576;2023-09-18T01:50:05;18.20;99.90
44170;DHT22;29836;52.286;9.576;2023-09-18T01:52:31;18.20;99.90
44170;DHT22;29836;52.286;9.576;2023-09-18T01:54:57;18.30;99.90
44170;DHT22;29836;52.286;9.576;2023-09-18T01:57:22;18.30;99.90
44170;DHT22;29836;52.286;9.576;2023-09-18T01:59:48;18.30;99.90
44170;DHT22;29836;52.286;9.576;2023-09-18T02:02:13;18.20;99.90
44170;DHT22;29836;52.286;9.576;2023-09-18T02:04:39;18.30;99.90
44170;DHT22;29836;52.286;9.576;2023-09-18T02:07:05;18.30;99.90
44170;DHT22;29836;52.286;9.576;2023-09-18T02:09:31;18.20;99.90
44170;DHT22;29836;52.286;9.576;2023-09-18T02:11:56;18.20;99.90
44170;DHT22;29836;52.286;9.576;2023-09-18T02:14:22;18.30;99.90
44170;DHT22;29836;52.286;9.576;2023-09-18T02:16:48;18.30;99.90
44170;DHT22;29836;52.286;9.576;2023-09-18T02:19:14;18.40;99.90
44170;DHT22;29836;52.286;9.576;2023-09-18T02:21:40;18.40;99.90
44170;DHT22;29836;52.286;9.576;2023-09-18T02:24:06;18.40;99.90
44170;DHT22;29836;52.286;9.576;2023-09-18T02:26:32;18.40;99.90
44170;DHT22;29836;52.286;9.576;2023-09-18T02:29:00;18.30;99.90
44170;DHT22;29836;52.286;9.576;2023-09-18T02:31:26;18.30;99.90
44170;DHT22;29836;52.286;9.576;2023-09-18T02:33:52;18.40;99.90
44170;DHT22;29836;52.286;9.576;2023-09-18T02:36:18;18.40;99.90
44170;DHT22;29836;52.286;9.576;2023-09-18T02:38:43;18.40;99.90
44170;DHT22;29836;52.286;9.576;2023-09-18T02:41:10;18.50;99.90
44170;DHT22;29836;52.286;9.576;2023-09-18T02:43:35;18.50;99.90
44170;DHT22;29836;52.286;9.576;2023-09-18T02:46:03;18.40;99.90
44170;DHT22;29836;52.286;9.576;2023-09-18T02:48:28;18.40;99.90
44170;DHT22;29836;52.286;9.576;2023-09-18T02:50:54;18.50;99.90
44170;DHT22;29836;52.286;9.576;2023-09-18T02:53:24;18.50;99.90
44170;DHT22;29836;52.286;9.576;2023-09-18T02:55:51;18.50;99.90
44170;DHT22;29836;52.286;9.576;2023-09-18T02:58:17;18.50;99.90
44170;DHT22;29836;52.286;9.576;2023-09-18T03:00:47;18.40;99.90
44170;DHT22;29836;52.286;9.576;2023-09-18T03:03:14;18.40;99.90
44170;DHT22;29836;52.286;9.576;2023-09-18T03:05:41;18.50;99.90
44170;DHT22;29836;52.286;9.576;2023-09-18T03:08:07;18.40;99.90
44170;DHT22;29836;52.286;9.576;2023-09-18T03:10:34;18.40;99.90
44170;DHT22;29836;52.286;9.576;2023-09-18T03:13:00;18.40;99.90
44170;DHT22;29836;52.286;9.576;2023-09-18T03:15:26;18.40;99.90
44170;DHT22;29836;52.286;9.576;2023-09-18T03:17:51;18.40;99.90
44170;DHT22;29836;52.286;9.576;2023-09-18T03:20:17;18.30;99.90
44170;DHT22;29836;52.286;9.576;2023-09-18T03:22:43;18.30;99.90
44170;DHT22;29836;52.286;9.576;2023-09-18T03:25:08;18.30;99.90
44170;DHT22;29836;52.286;9.576;2023-09-18T03:27:35;18.20;99.90
44170;DHT22;29836;52.286;9.576;2023-09-18T03:30:01;18.20;99.90
44170;DHT22;29836;52.286;9.576;2023-09-18T03:32:26;18.10;99.90
44170;DHT22;29836;52.286;9.576;2023-09-18T03:34:53;18.10;99.90
44170;DHT22;29836;52.286;9.576;2023-09-18T03:37:19;18.10;99.90
44170;DHT22;29836;52.286;9.576;2023-09-18T03:39:44;18.00;99.90
44170;DHT22;29836;52.286;9.576;2023-09-18T03:42:10;18.00;99.90
44170;DHT22;29836;52.286;9.576;2023-09-18T03:44:36;18.00;99.90
44170;DHT22;29836;52.286;9.576;2023-09-18T03:47:02;17.90;99.90
44170;DHT22;29836;52.286;9.576;2023-09-18T03:49:29;17.90;99.90
44170;DHT22;29836;52.286;9.576;2023-09-18T03:51:54;17.90;99.90
44170;DHT22;29836;52.286;9.576;2023-09-18T03:54:20;17.80;99.90
44170;DHT22;29836;52.286;9.576;2023-09-18T03:56:45;17.70;99.90
44170;DHT22;29836;52.286;9.576;2023-09-18T03:59:12;17.70;99.90
44170;DHT22;29836;52.286;9.576;2023-09-18T04:01:37;17.60;99.90
44170;DHT22;29836;52.286;9.576;2023-09-18T04:04:03;17.60;99.90
44170;DHT22;29836;52.286;9.576;2023-09-18T04:06:36;17.50;99.90
44170;DHT22;29836;52.286;9.576;2023-09-18T04:09:03;17.50;99.90
44170;DHT22;29836;52.286;9.576;2023-09-18T04:11:29;17.50;99.90
44170;DHT22;29836;52.286;9.576;2023-09-18T04:13:58;17.50;99.90
44170;DHT22;29836;52.286;9.576;2023-09-18T04:16:25;17.50;99.90
44170;DHT22;29836;52.286;9.576;2023-09-18T04:18:50;17.60;99.90
44170;DHT22;29836;52.286;9.576;2023-09-18T04:21:16;17.50;99.90
44170;DHT22;29836;52.286;9.576;2023-09-18T04:23:41;17.50;99.90
44170;DHT22;29836;52.286;9.576;2023-09-18T04:26:07;17.50;99.90
44170;DHT22;29836;52.286;9.576;2023-09-18T04:28:33;17.40;99.90
44170;DHT22;29836;52.286;9.576;2023-09-18T04:30:58;17.50;99.90
44170;DHT22;29836;52.286;9.576;2023-09-18T04:33:24;17.50;99.90
44170;DHT22;29836;52.286;9.576;2023-09-18T04:35:50;17.60;99.90
44170;DHT22;29836;52.286;9.576;2023-09-18T04:38:16;17.80;99.90
44170;DHT22;29836;52.286;9.576;2023-09-18T04:40:44;17.90;99.90
44170;DHT22;29836;52.286;9.576;2023-09-18T04:43:11;18.10;99.90
44170;DHT22;29836;52.286;9.576;2023-09-18T04:45:37;18.30;99.90
44170;DHT22;29836;52.286;9.576;2023-09-18T04:48:03;18.40;99.90
44170;DHT22;29836;52.286;9.576;2023-09-18T04:50:31;18.40;99.90
44170;DHT22;29836;52.286;9.576;2023-09-18T04:52:57;18.40;99.90
44170;DHT22;29836;52.286;9.576;2023-09-18T04:55:23;18.50;99.90
44170;DHT22;29836;52.286;9.576;2023-09-18T04:57:48;18.50;99.90
44170;DHT22;29836;52.286;9.576;2023-09-18T05:00:14;18.50;99.90
44170;DHT22;29836;52.286;9.576;2023-09-18T05:02:40;18.60;99.90
44170;DHT22;29836;52.286;9.576;2023-09-18T05:05:06;18.70;99.90
44170;DHT22;29836;52.286;9.576;2023-09-18T05:07:34;18.80;99.90
44170;DHT22;29836;52.286;9.576;2023-09-18T05:10:00;19.00;99.90
44170;DHT22;29836;52.286;9.576;2023-09-18T05:12:25;19.20;99.90
44170;DHT22;29836;52.286;9.576;2023-09-18T05:14:51;19.30;99.90
44170;DHT22;29836;52.286;9.576;2023-09-18T05:17:17;19.40;99.90
44170;DHT22;29836;52.286;9.576;2023-09-18T05:19:43;19.50;99.90
44170;DHT22;29836;52.286;9.576;2023-09-18T05:22:10;19.60;99.90
44170;DHT22;29836;52.286;9.576;2023-09-18T05:24:37;19.70;99.90
44170;DHT22;29836;52.286;9.576;2023-09-18T05:27:02;19.90;99.90
44170;DHT22;29836;52.286;9.576;2023-09-18T05:29:28;20.00;99.90
44170;DHT22;29836;52.286;9.576;2023-09-18T05:31:54;20.10;99.90
44170;DHT22;29836;52.286;9.576;2023-09-18T05:34:19;20.10;99.90
44170;DHT22;29836;52.286;9.576;2023-09-18T05:36:45;20.20;99.90
44170;DHT22;29836;52.286;9.576;2023-09-18T05:39:10;20.30;99.90
44170;DHT22;29836;52.286;9.576;2023-09-18T05:41:41;20.40;99.90
44170;DHT22;29836;52.286;9.576;2023-09-18T05:44:07;20.50;99.90
44170;DHT22;29836;52.286;9.576;2023-09-18T05:46:34;20.50;99.90
44170;DHT22;29836;52.286;9.576;2023-09-18T05:49:00;20.50;99.90
44170;DHT22;29836;52.286;9.576;2023-09-18T05:51:26;20.70;99.90
44170;DHT22;29836;52.286;9.576;2023-09-18T05:53:52;20.70;99.90
44170;DHT22;29836;52.286;9.576;2023-09-18T05:56:18;20.80;99.90
44170;DHT22;29836;52.286;9.576;2023-09-18T05:58:43;20.70;99.90
44170;DHT22;29836;52.286;9.576;2023-09-18T06:01:09;20.60;99.90
44170;DHT22;29836;52.286;9.576;2023-09-18T06:03:35;20.60;99.90
44170;DHT22;29836;52.286;9.576;2023-09-18T06:06:05;20.60;99.90
44170;DHT22;29836;52.286;9.576;2023-09-18T06:08:30;20.60;99.90
44170;DHT22;29836;52.286;9.576;2023-09-18T06:10:57;20.60;99.90
44170;DHT22;29836;52.286;9.576;2023-09-18T06:13:27;20.60;99.90
44170;DHT22;29836;52.286;9.576;2023-09-18T06:15:54;20.60;99.90
44170;DHT22;29836;52.286;9.576;2023-09-18T06:18:21;20.60;99.90
44170;DHT22;29836;52.286;9.576;2023-09-18T06:20:48;20.70;99.90
44170;DHT22;29836;52.286;9.576;2023-09-18T06:23:13;20.70;99.90
44170;DHT22;29836;52.286;9.576;2023-09-18T06:25:39;20.70;99.90
44170;DHT22;29836;52.286;9.576;2023-09-18T06:28:05;20.70;99.90
44170;DHT22;29836;52.286;9.576;2023-09-18T06:30:32;20.70;99.90
44170;DHT22;29836;52.286;9.576;2023-09-18T06:33:01;20.70;99.90
44170;DHT22;29836;52.286;9.576;2023-09-18T06:35:28;20.70;99.90
44170;DHT22;29836;52.286;9.576;2023-09-18T06:37:53;20.80;99.90
44170;DHT22;29836;52.286;9.576;2023-09-18T06:40:24;20.90;99.90
44170;DHT22;29836;52.286;9.576;2023-09-18T06:42:50;20.90;99.90
44170;DHT22;29836;52.286;9.576;2023-09-18T06:45:17;21.00;99.90
44170;DHT22;29836;52.286;9.576;2023-09-18T06:47:42;21.20;99.90
44170;DHT22;29836;52.286;9.576;2023-09-18T06:50:08;21.30;99.90
44170;DHT22;29836;52.286;9.576;2023-09-18T06:52:34;21.50;99.90
44170;DHT22;29836;52.286;9.576;2023-09-18T06:55:00;21.60;99.90
44170;DHT22;29836;52.286;9.576;2023-09-18T06:57:26;21.80;99.90
44170;DHT22;29836;52.286;9.576;2023-09-18T06:59:51;21.80;99.90
44170;DHT22;29836;52.286;9.576;2023-09-18T07:02:17;21.80;99.90
44170;DHT22;29836;52.286;9.576;2023-09-18T07:04:43;21.80;99.90
44170;DHT22;29836;52.286;9.576;2023-09-18T07:07:15;21.70;99.90
44170;DHT22;29836;52.286;9.576;2023-09-18T07:09:43;21.70;99.90
44170;DHT22;29836;52.286;9.576;2023-09-18T07:12:09;21.70;99.90
44170;DHT22;29836;52.286;9.576;2023-09-18T07:14:35;21.70;99.90
44170;DHT22;29836;52.286;9.576;2023-09-18T07:17:01;21.70;99.90
44170;DHT22;29836;52.286;9.576;2023-09-18T07:19:27;21.60;99.90
44170;DHT22;29836;52.286;9.576;2023-09-18T07:21:53;21.60;99.90
44170;DHT22;29836;52.286;9.576;2023-09-18T07:24:18;21.50;99.90
44170;DHT22;29836;52.286;9.576;2023-09-18T07:26:47;21.40;99.90
44170;DHT22;29836;52.286;9.576;2023-09-18T07:29:16;21.50;99.90
44170;DHT22;29836;52.286;9.576;2023-09-18T07:31:42;21.40;99.90
44170;DHT22;29836;52.286;9.576;2023-09-18T07:34:08;21.60;99.90
44170;DHT22;29836;52.286;9.576;2023-09-18T07:36:34;21.60;99.90
44170;DHT22;29836;52.286;9.576;2023-09-18T07:39:00;21.70;99.90
44170;DHT22;29836;52.286;9.576;2023-09-18T07:41:25;21.70;99.90
44170;DHT22;29836;52.286;9.576;2023-09-18T07:43:51;21.90;99.90
44170;DHT22;29836;52.286;9.576;2023-09-18T07:46:17;22.10;99.90
44170;DHT22;29836;52.286;9.576;2023-09-18T07:48:42;22.30;99.90
44170;DHT22;29836;52.286;9.576;2023-09-18T07:51:11;22.50;99.90
44170;DHT22;29836;52.286;9.576;2023-09-18T07:53:37;22.70;99.90
44170;DHT22;29836;52.286;9.576;2023-09-18T07:56:03;22.80;99.90
44170;DHT22;29836;52.286;9.576;2023-09-18T07:58:32;22.90;99.90
44170;DHT22;29836;52.286;9.576;2023-09-18T08:00:59;23.10;99.90
44170;DHT22;29836;52.286;9.576;2023-09-18T08:03:25;23.20;99.90
44170;DHT22;29836;52.286;9.576;2023-09-18T08:05:52;23.40;99.90
44170;DHT22;29836;52.286;9.576;2023-09-18T08:08:19;23.50;99.90
44170;DHT22;29836;52.286;9.576;2023-09-18T08:10:46;23.60;99.90
44170;DHT22;29836;52.286;9.576;2023-09-18T08:13:12;23.80;99.90
44170;DHT22;29836;52.286;9.576;2023-09-18T08:15:38;24.00;99.90
44170;DHT22;29836;52.286;9.576;2023-09-18T08:18:04;24.30;99.90
44170;DHT22;29836;52.286;9.576;2023-09-18T08:20:30;24.50;99.90
44170;DHT22;29836;52.286;9.576;2023-09-18T08:22:55;24.70;99.90
44170;DHT22;29836;52.286;9.576;2023-09-18T08:25:21;24.60;99.90
44170;DHT22;29836;52.286;9.576;2023-09-18T08:27:47;24.40;99.90
44170;DHT22;29836;52.286;9.576;2023-09-18T08:30:14;24.30;99.90
44170;DHT22;29836;52.286;9.576;2023-09-18T08:32:42;24.20;99.90
44170;DHT22;29836;52.286;9.576;2023-09-18T08:35:08;24.00;99.90
44170;DHT22;29836;52.286;9.576;2023-09-18T08:37:34;24.00;99.90
44170;DHT22;29836;52.286;9.576;2023-09-18T08:39:59;24.10;99.90
44170;DHT22;29836;52.286;9.576;2023-09-18T08:42:36;24.20;99.90
44170;DHT22;29836;52.286;9.576;2023-09-18T08:45:08;24.00;99.90
44170;DHT22;29836;52.286;9.576;2023-09-18T08:47:40;24.00;99.90
44170;DHT22;29836;52.286;9.576;2023-09-18T08:50:08;24.10;99.90
44170;DHT22;29836;52.286;9.576;2023-09-18T08:52:36;23.90;99.90
44170;DHT22;29836;52.286;9.576;2023-09-18T08:55:03;24.00;99.90
44170;DHT22;29836;52.286;9.576;2023-09-18T08:57:30;24.30;99.90
44170;DHT22;29836;52.286;9.576;2023-09-18T08:59:56;24.50;99.90
44170;DHT22;29836;52.286;9.576;2023-09-18T09:02:23;24.60;99.90
44170;DHT22;29836;52.286;9.576;2023-09-18T09:04:49;24.60;99.90
44170;DHT22;29836;52.286;9.576;2023-09-18T09:07:15;24.60;99.90
44170;DHT22;29836;52.286;9.576;2023-09-18T09:09:41;24.90;99.90
44170;DHT22;29836;52.286;9.576;2023-09-18T09:12:08;25.30;99.90
44170;DHT22;29836;52.286;9.576;2023-09-18T09:14:33;25.30;99.90
44170;DHT22;29836;52.286;9.576;2023-09-18T09:16:59;25.10;99.90
44170;DHT22;29836;52.286;9.576;2023-09-18T09:21:55;24.50;99.90
44170;DHT22;29836;52.286;9.576;2023-09-18T09:24:40;24.30;99.90
44170;DHT22;29836;52.286;9.576;2023-09-18T09:27:06;24.20;99.90
44170;DHT22;29836;52.286;9.576;2023-09-18T09:29:32;24.00;99.90
44170;DHT22;29836;52.286;9.576;2023-09-18T09:34:41;23.80;99.90
44170;DHT22;29836;52.286;9.576;2023-09-18T09:37:07;23.60;99.90
44170;DHT22;29836;52.286;9.576;2023-09-18T09:39:33;23.50;99.90
44170;DHT22;29836;52.286;9.576;2023-09-18T09:42:00;23.40;99.90
44170;DHT22;29836;52.286;9.576;2023-09-18T09:44:31;23.20;99.90
44170;DHT22;29836;52.286;9.576;2023-09-18T09:46:59;23.10;99.90
44170;DHT22;29836;52.286;9.576;2023-09-18T09:49:25;23.00;99.90
44170;DHT22;29836;52.286;9.576;2023-09-18T09:51:53;22.90;99.90
44170;DHT22;29836;52.286;9.576;2023-09-18T09:54:32;23.10;99.90
44170;DHT22;29836;52.286;9.576;2023-09-18T09:57:02;23.10;99.90
44170;DHT22;29836;52.286;9.576;2023-09-18T09:59:28;23.10;99.90
44170;DHT22;29836;52.286;9.576;2023-09-18T10:01:55;23.10;99.90
44170;DHT22;29836;52.286;9.576;2023-09-18T10:04:23;23.10;99.90
44170;DHT22;29836;52.286;9.576;2023-09-18T10:06:54;23.10;99.90
44170;DHT22;29836;52.286;9.576;2023-09-18T10:09:22;23.00;99.90
44170;DHT22;29836;52.286;9.576;2023-09-18T10:11:52;23.10;99.90
44170;DHT22;29836;52.286;9.576;2023-09-18T10:14:20;23.20;99.90
44170;DHT22;29836;52.286;9.576;2023-09-18T10:16:53;23.30;99.90
44170;DHT22;29836;52.286;9.576;2023-09-18T10:19:40;23.40;99.90
44170;DHT22;29836;52.286;9.576;2023-09-18T10:22:24;23.60;99.90
44170;DHT22;29836;52.286;9.576;2023-09-18T10:24:57;23.80;99.90
44170;DHT22;29836;52.286;9.576;2023-09-18T10:27:25;23.70;99.90
44170;DHT22;29836;52.286;9.576;2023-09-18T10:29:53;24.00;99.90
44170;DHT22;29836;52.286;9.576;2023-09-18T10:32:20;24.00;99.90
44170;DHT22;29836;52.286;9.576;2023-09-18T10:34:47;23.90;99.90
44170;DHT22;29836;52.286;9.576;2023-09-18T10:37:15;24.00;99.90
44170;DHT22;29836;52.286;9.576;2023-09-18T10:39:41;23.90;99.90
44170;DHT22;29836;52.286;9.576;2023-09-18T10:42:08;23.90;99.90
44170;DHT22;29836;52.286;9.576;2023-09-18T10:44:35;23.90;99.90
44170;DHT22;29836;52.286;9.576;2023-09-18T10:47:02;24.00;99.90
44170;DHT22;29836;52.286;9.576;2023-09-18T10:49:31;24.10;99.90
44170;DHT22;29836;52.286;9.576;2023-09-18T10:51:57;24.10;99.90
44170;DHT22;29836;52.286;9.576;2023-09-18T10:54:25;24.20;99.90
44170;DHT22;29836;52.286;9.576;2023-09-18T10:56:52;24.30;99.90
44170;DHT22;29836;52.286;9.576;2023-09-18T10:59:18;24.50;99.90
44170;DHT22;29836;52.286;9.576;2023-09-18T11:01:44;24.50;99.90
44170;DHT22;29836;52.286;9.576;2023-09-18T11:04:11;24.60;99.90
44170;DHT22;29836;52.286;9.576;2023-09-18T11:09:26;24.70;99.90
44170;DHT22;29836;52.286;9.576;2023-09-18T11:12:14;24.70;99.90
44170;DHT22;29836;52.286;9.576;2023-09-18T11:14:49;24.80;99.90
44170;DHT22;29836;52.286;9.576;2023-09-18T11:22:47;25.20;99.90
44170;DHT22;29836;52.286;9.576;2023-09-18T11:28:01;25.40;99.90
44170;DHT22;29836;52.286;9.576;2023-09-18T11:30:28;25.50;99.90
44170;DHT22;29836;52.286;9.576;2023-09-18T11:32:54;25.70;99.90
44170;DHT22;29836;52.286;9.576;2023-09-18T11:35:21;25.70;99.90
44170;DHT22;29836;52.286;9.576;2023-09-18T11:37:47;25.70;99.90
44170;DHT22;29836;52.286;9.576;2023-09-18T11:40:32;25.60;99.90
44170;DHT22;29836;52.286;9.576;2023-09-18T11:43:27;25.40;99.90
44170;DHT22;29836;52.286;9.576;2023-09-18T11:46:00;25.10;99.90
44170;DHT22;29836;52.286;9.576;2023-09-18T11:48:28;24.90;99.90
44170;DHT22;29836;52.286;9.576;2023-09-18T11:50:56;24.60;99.90
44170;DHT22;29836;52.286;9.576;2023-09-18T11:53:24;24.20;99.90
44170;DHT22;29836;52.286;9.576;2023-09-18T11:55:50;24.30;99.90
44170;DHT22;29836;52.286;9.576;2023-09-18T11:58:15;24.20;99.90
44170;DHT22;29836;52.286;9.576;2023-09-18T12:00:41;24.20;99.90
44170;DHT22;29836;52.286;9.576;2023-09-18T12:03:17;24.20;99.90
44170;DHT22;29836;52.286;9.576;2023-09-18T12:05:59;24.20;99.90
44170;DHT22;29836;52.286;9.576;2023-09-18T12:08:25;24.20;99.90
44170;DHT22;29836;52.286;9.576;2023-09-18T12:10:55;24.20;99.90
44170;DHT22;29836;52.286;9.576;2023-09-18T12:13:21;24.30;99.90
44170;DHT22;29836;52.286;9.576;2023-09-18T12:15:48;24.30;99.90
44170;DHT22;29836;52.286;9.576;2023-09-18T12:18:15;24.50;99.90
44170;DHT22;29836;52.286;9.576;2023-09-18T12:20:48;24.50;99.90
44170;DHT22;29836;52.286;9.576;2023-09-18T12:23:15;24.70;99.90
44170;DHT22;29836;52.286;9.576;2023-09-18T12:25:41;24.80;99.90
44170;DHT22;29836;52.286;9.576;2023-09-18T12:28:07;24.80;99.90
44170;DHT22;29836;52.286;9.576;2023-09-18T12:30:33;24.70;99.90
44170;DHT22;29836;52.286;9.576;2023-09-18T12:32:59;24.80;99.90
44170;DHT22;29836;52.286;9.576;2023-09-18T12:35:31;24.90;99.90
44170;DHT22;29836;52.286;9.576;2023-09-18T12:38:00;25.00;99.90
44170;DHT22;29836;52.286;9.576;2023-09-18T12:40:30;25.00;99.90
44170;DHT22;29836;52.286;9.576;2023-09-18T12:42:58;24.90;99.90
44170;DHT22;29836;52.286;9.576;2023-09-18T12:45:26;24.90;99.90
44170;DHT22;29836;52.286;9.576;2023-09-18T12:47:55;24.80;99.90
44170;DHT22;29836;52.286;9.576;2023-09-18T12:50:21;24.70;99.90
44170;DHT22;29836;52.286;9.576;2023-09-18T12:52:46;24.70;99.90
44170;DHT22;29836;52.286;9.576;2023-09-18T12:55:25;24.70;99.90
44170;DHT22;29836;52.286;9.576;2023-09-18T12:57:52;24.50;99.90
44170;DHT22;29836;52.286;9.576;2023-09-18T13:00:19;24.50;99.90
44170;DHT22;29836;52.286;9.576;2023-09-18T13:02:48;24.40;99.90
44170;DHT22;29836;52.286;9.576;2023-09-18T13:05:19;24.40;99.90
44170;DHT22;29836;52.286;9.576;2023-09-18T13:07:45;24.30;99.90
44170;DHT22;29836;52.286;9.576;2023-09-18T13:10:11;24.20;99.90
44170;DHT22;29836;52.286;9.576;2023-09-18T13:12:41;24.00;99.90
44170;DHT22;29836;52.286;9.576;2023-09-18T13:15:07;24.00;99.90
44170;DHT22;29836;52.286;9.576;2023-09-18T13:17:42;23.90;99.90
44170;DHT22;29836;52.286;9.576;2023-09-18T13:20:28;23.80;99.90
44170;DHT22;29836;52.286;9.576;2023-09-18T13:22:58;23.80;99.90
44170;DHT22;29836;52.286;9.576;2023-09-18T13:25:35;23.80;99.90
44170;DHT22;29836;52.286;9.576;2023-09-18T13:28:04;23.90;99.90
44170;DHT22;29836;52.286;9.576;2023-09-18T13:30:31;23.80;99.90
44170;DHT22;29836;52.286;9.576;2023-09-18T13:33:04;23.80;99.90
44170;DHT22;29836;52.286;9.576;2023-09-18T13:35:32;23.80;99.90
44170;DHT22;29836;52.286;9.576;2023-09-18T13:37:58;23.70;99.90
44170;DHT22;29836;52.286;9.576;2023-09-18T13:40:24;23.70;99.90
44170;DHT22;29836;52.286;9.576;2023-09-18T13:42:50;23.60;99.90
44170;DHT22;29836;52.286;9.576;2023-09-18T13:45:16;23.80;99.90
44170;DHT22;29836;52.286;9.576;2023-09-18T13:47:42;24.00;99.90
44170;DHT22;29836;52.286;9.576;2023-09-18T13:50:08;24.40;99.90
44170;DHT22;29836;52.286;9.576;2023-09-18T13:52:36;24.80;99.90
44170;DHT22;29836;52.286;9.576;2023-09-18T13:55:05;24.90;99.90
44170;DHT22;29836;52.286;9.576;2023-09-18T13:57:34;25.00;99.90
44170;DHT22;29836;52.286;9.576;2023-09-18T14:00:01;24.90;99.90
44170;DHT22;29836;52.286;9.576;2023-09-18T14:02:26;24.80;99.90
44170;DHT22;29836;52.286;9.576;2023-09-18T14:04:56;24.70;99.90
44170;DHT22;29836;52.286;9.576;2023-09-18T14:07:21;24.90;99.90
44170;DHT22;29836;52.286;9.576;2023-09-18T14:09:48;24.80;99.90
44170;DHT22;29836;52.286;9.576;2023-09-18T14:12:13;24.60;99.90
44170;DHT22;29836;52.286;9.576;2023-09-18T14:14:43;24.50;99.90
44170;DHT22;29836;52.286;9.576;2023-09-18T14:17:10;24.30;99.90
44170;DHT22;29836;52.286;9.576;2023-09-18T14:19:36;24.20;99.90
44170;DHT22;29836;52.286;9.576;2023-09-18T14:22:08;24.20;99.90
44170;DHT22;29836;52.286;9.576;2023-09-18T14:24:34;24.10;99.90
44170;DHT22;29836;52.286;9.576;2023-09-18T14:27:01;24.10;99.90
44170;DHT22;29836;52.286;9.576;2023-09-18T14:29:26;24.10;99.90
44170;DHT22;29836;52.286;9.576;2023-09-18T14:31:53;24.10;99.90
44170;DHT22;29836;52.286;9.576;2023-09-18T14:34:18;24.10;99.90
44170;DHT22;29836;52.286;9.576;2023-09-18T14:36:44;24.10;99.90
44170;DHT22;29836;52.286;9.576;2023-09-18T14:39:10;24.10;99.90
44170;DHT22;29836;52.286;9.576;2023-09-18T14:41:37;24.20;99.90
44170;DHT22;29836;52.286;9.576;2023-09-18T14:44:08;24.00;99.90
44170;DHT22;29836;52.286;9.576;2023-09-18T14:46:37;24.10;99.90
44170;DHT22;29836;52.286;9.576;2023-09-18T14:49:06;24.20;99.90
44170;DHT22;29836;52.286;9.576;2023-09-18T14:51:35;24.30;99.90
44170;DHT22;29836;52.286;9.576;2023-09-18T14:54:01;24.40;99.90
44170;DHT22;29836;52.286;9.576;2023-09-18T14:56:29;24.30;99.90
44170;DHT22;29836;52.286;9.576;2023-09-18T14:58:55;24.30;99.90
44170;DHT22;29836;52.286;9.576;2023-09-18T15:01:21;24.20;99.90
44170;DHT22;29836;52.286;9.576;2023-09-18T15:03:47;24.00;99.90
44170;DHT22;29836;52.286;9.576;2023-09-18T15:06:14;23.90;99.90
44170;DHT22;29836;52.286;9.576;2023-09-18T15:08:40;23.70;99.90
44170;DHT22;29836;52.286;9.576;2023-09-18T15:11:05;23.70;99.90
44170;DHT22;29836;52.286;9.576;2023-09-18T15:13:31;23.60;99.90
44170;DHT22;29836;52.286;9.576;2023-09-18T15:15:57;23.60;99.90
44170;DHT22;29836;52.286;9.576;2023-09-18T15:18:24;23.60;99.90
44170;DHT22;29836;52.286;9.576;2023-09-18T15:20:50;23.60;99.90
44170;DHT22;29836;52.286;9.576;2023-09-18T15:23:20;23.70;99.90
44170;DHT22;29836;52.286;9.576;2023-09-18T15:25:47;23.70;99.90
44170;DHT22;29836;52.286;9.576;2023-09-18T15:28:14;23.80;99.90
44170;DHT22;29836;52.286;9.576;2023-09-18T15:30:39;23.90;99.90
44170;DHT22;29836;52.286;9.576;2023-09-18T15:33:05;23.80;99.90
44170;DHT22;29836;52.286;9.576;2023-09-18T15:35:31;23.70;99.90
44170;DHT22;29836;52.286;9.576;2023-09-18T15:37:57;23.70;99.90
44170;DHT22;29836;52.286;9.576;2023-09-18T15:40:23;23.80;99.90
44170;DHT22;29836;52.286;9.576;2023-09-18T15:42:51;23.80;99.90
44170;DHT22;29836;52.286;9.576;2023-09-18T15:45:17;23.60;99.90
44170;DHT22;29836;52.286;9.576;2023-09-18T15:47:43;23.40;99.90